createdAt,value
2022-09-20T00:01:32.194Z,7.56
2022-09-20T00:04:02.386Z,7.52
2022-09-20T00:06:31.685Z,7.49
2022-09-20T00:09:01.289Z,7.47
2022-09-20T00:11:31.794Z,7.46
2022-09-20T00:14:01.431Z,7.44
2022-09-20T00:16:35.537Z,7.40
2022-09-20T00:19:05.395Z,7.37
2022-09-20T00:21:36.529Z,7.32
2022-09-20T00:24:05.936Z,7.30
2022-09-20T00:26:34.072Z,7.27
2022-09-20T00:29:02.758Z,7.25
2022-09-20T00:31:30.599Z,7.24
2022-09-20T00:34:15.180Z,7.25
2022-09-20T00:36:44.385Z,7.27
2022-09-20T00:39:14.314Z,7.30
2022-09-20T00:41:42.694Z,7.33
2022-09-20T00:44:45.553Z,7.37
2022-09-20T00:47:35.034Z,7.40
2022-09-20T00:50:14.761Z,7.43
2022-09-20T00:52:46.260Z,7.46
2022-09-20T00:55:16.376Z,7.49
2022-09-20T00:57:45.234Z,7.51
2022-09-20T01:00:14.481Z,7.53
2022-09-20T01:02:48.002Z,7.54
2022-09-20T01:05:16.327Z,7.55
2022-09-20T01:07:46.019Z,7.55
2022-09-20T01:10:13.866Z,7.56
2022-09-20T01:12:44.278Z,7.57
2022-09-20T01:15:15.550Z,7.57
2022-09-20T01:17:49.823Z,7.58
2022-09-20T01:20:23.637Z,7.59
2022-09-20T01:23:10.443Z,7.61
2022-09-20T01:26:10.085Z,7.62
2022-09-20T01:28:39.895Z,7.63
2022-09-20T01:31:26.802Z,7.61
2022-09-20T01:33:59.758Z,7.61
2022-09-20T01:36:44.111Z,7.61
2022-09-20T01:39:17.937Z,7.61
2022-09-20T01:41:59.365Z,7.60
2022-09-20T01:44:33.564Z,7.62
2022-09-20T01:47:21.230Z,7.62
2022-09-20T01:50:07.612Z,7.64
2022-09-20T01:52:51.322Z,7.64
2022-09-20T01:55:37.911Z,7.65
2022-09-20T01:58:08.407Z,7.65
2022-09-20T02:00:51.394Z,7.64
2022-09-20T02:03:49.134Z,7.62
2022-09-20T02:06:37.850Z,7.61
2022-09-20T02:09:15.483Z,7.61
2022-09-20T02:12:05.802Z,7.59
2022-09-20T02:15:05.584Z,7.58
2022-09-20T02:17:56.292Z,7.55
2022-09-20T02:20:55.941Z,7.51
2022-09-20T02:23:44.573Z,7.47
2022-09-20T02:26:36.815Z,7.42
2022-09-20T02:29:27.472Z,7.37
2022-09-20T02:32:01.290Z,7.31
2022-09-20T02:34:38.219Z,7.28
2022-09-20T02:37:11.966Z,7.25
2022-09-20T02:40:08.368Z,7.22
2022-09-20T02:42:39.055Z,7.17
2022-09-20T02:45:22.780Z,7.13
2022-09-20T02:47:57.031Z,7.08
2022-09-20T02:50:40.674Z,7.04
2022-09-20T02:53:33.508Z,7.01
2022-09-20T02:56:17.464Z,6.99
2022-09-20T02:59:17.165Z,6.96
2022-09-20T03:02:09.186Z,6.94
2022-09-20T03:05:09.741Z,6.92
2022-09-20T03:07:53.367Z,6.92
2022-09-20T03:10:57.597Z,6.93
2022-09-20T03:14:07.530Z,6.89
2022-09-20T03:16:58.652Z,6.85
2022-09-20T03:19:36.364Z,6.81
2022-09-20T03:22:26.335Z,6.75
2022-09-20T03:25:09.638Z,6.71
2022-09-20T03:27:53.295Z,6.66
2022-09-20T03:30:37.027Z,6.62
2022-09-20T03:33:26.896Z,6.61
2022-09-20T03:36:25.527Z,6.62
2022-09-20T03:39:24.215Z,6.61
2022-09-20T03:42:16.025Z,6.62
2022-09-20T03:45:05.688Z,6.63
2022-09-20T03:47:52.380Z,6.63
2022-09-20T03:50:42.272Z,6.64
2022-09-20T03:53:19.042Z,6.64
2022-09-20T03:56:01.735Z,6.65
2022-09-20T03:58:46.438Z,6.64
2022-09-20T04:01:30.136Z,6.64
2022-09-20T04:04:13.666Z,6.64
2022-09-20T04:07:00.506Z,6.66
2022-09-20T04:09:43.758Z,6.67
2022-09-20T04:12:39.058Z,6.69
2022-09-20T04:15:12.801Z,6.72
2022-09-20T04:18:03.603Z,6.73
2022-09-20T04:20:40.153Z,6.76
2022-09-20T04:23:16.274Z,6.77
2022-09-20T04:25:48.374Z,6.80
2022-09-20T04:28:32.222Z,6.81
2022-09-20T04:31:05.950Z,6.84
2022-09-20T04:33:43.103Z,6.85
2022-09-20T04:36:36.759Z,6.86
2022-09-20T04:39:26.404Z,6.88
2022-09-20T04:42:15.314Z,6.89
2022-09-20T04:45:16.665Z,6.91
2022-09-20T04:48:01.383Z,6.92
2022-09-20T04:50:48.066Z,6.93
2022-09-20T04:53:18.976Z,6.95
2022-09-20T04:55:53.827Z,6.97
2022-09-20T04:58:37.539Z,7.00
2022-09-20T05:01:16.545Z,7.03
2022-09-20T05:04:01.530Z,7.04
2022-09-20T05:06:45.274Z,7.04
2022-09-20T05:09:44.962Z,7.06
2022-09-20T05:12:46.439Z,7.07
2022-09-20T05:15:35.186Z,7.10
2022-09-20T05:18:18.213Z,7.11
2022-09-20T05:20:53.034Z,7.13
2022-09-20T05:23:39.843Z,7.15
2022-09-20T05:26:40.582Z,7.19
2022-09-20T05:29:20.549Z,7.20
2022-09-20T05:32:01.990Z,7.20
2022-09-20T05:34:53.712Z,7.19
2022-09-20T05:37:39.875Z,7.17
2022-09-20T05:40:39.328Z,7.22
2022-09-20T05:43:13.251Z,7.30
2022-09-20T05:45:57.085Z,7.33
2022-09-20T05:48:24.910Z,7.35
2022-09-20T05:51:16.473Z,7.41
2022-09-20T05:54:16.133Z,7.45
2022-09-20T05:57:11.579Z,7.55
2022-09-20T06:00:11.269Z,7.65
2022-09-20T06:03:00.933Z,7.72
2022-09-20T06:05:43.658Z,7.80
2022-09-20T06:08:27.387Z,7.91
2022-09-20T06:11:11.208Z,8.00
2022-09-20T06:13:59.869Z,8.06
2022-09-20T06:16:49.246Z,8.10
2022-09-20T06:19:48.956Z,8.18
2022-09-20T06:22:20.205Z,8.30
2022-09-20T06:25:08.149Z,8.42
2022-09-20T06:27:42.845Z,8.60
2022-09-20T06:30:29.802Z,8.66
2022-09-20T06:33:00.261Z,8.69
2022-09-20T06:35:38.104Z,8.72
2022-09-20T06:38:37.875Z,8.76
2022-09-20T06:41:21.930Z,8.78
2022-09-20T06:43:49.966Z,8.84
2022-09-20T06:46:17.764Z,8.91
2022-09-20T06:48:45.541Z,8.99
2022-09-20T06:51:13.295Z,9.06
2022-09-20T06:53:42.204Z,9.15
2022-09-20T06:56:16.972Z,9.30
2022-09-20T06:58:44.765Z,9.41
2022-09-20T07:01:13.751Z,9.49
2022-09-20T07:03:42.587Z,9.51
2022-09-20T07:06:11.186Z,9.54
2022-09-20T07:08:39.300Z,9.58
2022-09-20T07:11:11.833Z,9.60
2022-09-20T07:13:39.567Z,9.61
2022-09-20T07:16:10.667Z,9.63
2022-09-20T07:18:39.197Z,9.64
2022-09-20T07:21:11.019Z,9.62
2022-09-20T07:23:39.227Z,9.71
2022-09-20T07:26:16.647Z,9.76
2022-09-20T07:28:44.359Z,9.77
2022-09-20T07:31:12.114Z,9.77
2022-09-20T07:33:40.143Z,9.82
2022-09-20T07:36:07.975Z,9.88
2022-09-20T07:38:35.764Z,9.99
2022-09-20T07:41:05.718Z,10.14
2022-09-20T07:43:34.231Z,10.22
2022-09-20T07:46:02.977Z,10.28
2022-09-20T07:48:34.303Z,10.36
2022-09-20T07:51:14.317Z,10.47
2022-09-20T07:54:16.054Z,10.59
2022-09-20T07:56:44.771Z,10.72
2022-09-20T07:59:16.672Z,10.85
2022-09-20T08:01:44.464Z,10.90
2022-09-20T08:04:12.828Z,10.97
2022-09-20T08:06:43.763Z,11.05
2022-09-20T08:09:13.569Z,11.16
2022-09-20T08:11:43.556Z,11.28
2022-09-20T08:14:16.328Z,11.35
2022-09-20T08:16:47.507Z,11.38
2022-09-20T08:19:21.088Z,11.47
2022-09-20T08:21:52.640Z,11.49
2022-09-20T08:24:20.900Z,11.60
2022-09-20T08:26:48.883Z,11.70
2022-09-20T08:29:16.696Z,11.84
2022-09-20T08:31:44.687Z,11.99
2022-09-20T08:34:15.135Z,12.03
2022-09-20T08:36:46.651Z,12.09
2022-09-20T08:42:22.138Z,12.15
2022-09-20T08:44:59.510Z,12.28
2022-09-20T08:47:31.247Z,12.29
2022-09-20T08:50:09.242Z,12.34
2022-09-20T08:52:40.046Z,12.37
2022-09-20T08:55:22.379Z,12.33
2022-09-20T08:57:53.465Z,12.33
2022-09-20T09:00:26.384Z,12.48
2022-09-20T09:02:57.157Z,12.60
2022-09-20T09:05:33.348Z,12.67
2022-09-20T09:08:09.136Z,12.57
2022-09-20T09:10:43.077Z,12.68
2022-09-20T09:13:20.765Z,12.88
2022-09-20T09:15:54.544Z,13.00
2022-09-20T09:18:31.746Z,13.07
2022-09-20T09:21:04.099Z,13.21
2022-09-20T09:23:43.069Z,13.41
2022-09-20T09:26:27.301Z,13.57
2022-09-20T09:29:23.394Z,13.57
2022-09-20T09:31:54.540Z,13.65
2022-09-20T09:34:31.600Z,13.79
2022-09-20T09:37:00.324Z,13.68
2022-09-20T09:39:33.606Z,13.61
2022-09-20T09:42:20.405Z,13.52
2022-09-20T09:44:50.447Z,13.37
2022-09-20T09:47:31.185Z,13.24
2022-09-20T09:50:03.645Z,13.26
2022-09-20T09:52:33.988Z,13.19
2022-09-20T09:55:05.627Z,13.10
2022-09-20T09:57:55.731Z,13.24
2022-09-20T10:00:27.273Z,13.58
2022-09-20T10:03:11.134Z,13.83
2022-09-20T10:05:59.152Z,14.09
2022-09-20T10:08:37.680Z,14.34
2022-09-20T10:11:24.038Z,14.29
2022-09-20T10:14:13.497Z,14.27
2022-09-20T10:16:44.666Z,14.19
2022-09-20T10:19:43.080Z,14.33
2022-09-20T10:22:35.236Z,14.20
2022-09-20T10:25:23.153Z,14.03
2022-09-20T10:28:30.032Z,13.99
2022-09-20T10:31:06.849Z,13.93
2022-09-20T10:34:07.001Z,13.85
2022-09-20T10:36:45.455Z,13.88
2022-09-20T10:39:43.338Z,14.13
2022-09-20T10:42:44.279Z,14.45
2022-09-20T10:45:59.116Z,14.67
2022-09-20T10:48:24.764Z,14.96
2022-09-20T10:50:59.432Z,15.21
2022-09-20T10:53:52.132Z,15.43
2022-09-20T10:56:25.595Z,15.56
2022-09-20T10:59:09.667Z,15.54
2022-09-20T11:01:51.995Z,15.36
2022-09-20T11:04:46.046Z,15.33
2022-09-20T11:07:19.539Z,15.36
2022-09-20T11:09:52.686Z,15.45
2022-09-20T11:12:33.532Z,15.57
2022-09-20T11:15:15.915Z,15.61
2022-09-20T11:18:03.151Z,15.64
2022-09-20T11:20:37.562Z,15.76
2022-09-20T11:23:39.831Z,15.96
2022-09-20T11:26:14.659Z,16.14
2022-09-20T11:28:52.372Z,16.06
2022-09-20T11:31:29.849Z,16.05
2022-09-20T11:34:05.211Z,16.13
2022-09-20T11:36:57.324Z,16.16
2022-09-20T11:39:55.275Z,16.30
2022-09-20T11:42:28.574Z,16.31
2022-09-20T11:44:56.993Z,16.14
2022-09-20T11:47:53.209Z,15.97
2022-09-20T11:50:50.640Z,16.01
2022-09-20T11:53:37.235Z,16.21
2022-09-20T11:56:13.875Z,16.09
2022-09-20T11:58:48.301Z,16.42
2022-09-20T12:01:28.542Z,16.65
2022-09-20T12:04:21.014Z,16.99
2022-09-20T12:06:56.700Z,17.33
2022-09-20T12:09:29.592Z,17.32
2022-09-20T12:11:59.598Z,16.96
2022-09-20T12:14:32.227Z,17.19
2022-09-20T12:17:00.598Z,17.57
2022-09-20T12:19:32.825Z,17.89
2022-09-20T12:22:00.522Z,17.69
2022-09-20T12:24:34.706Z,17.29
2022-09-20T12:27:21.435Z,16.85
2022-09-20T12:30:20.022Z,16.58
2022-09-20T12:32:56.320Z,16.30
2022-09-20T12:35:40.169Z,16.10
2022-09-20T12:38:28.264Z,16.22
2022-09-20T12:40:59.086Z,16.39
2022-09-20T12:43:29.715Z,16.50
2022-09-20T12:46:03.843Z,16.54
2022-09-20T12:48:37.925Z,16.30
2022-09-20T12:51:47.990Z,15.79
2022-09-20T12:54:16.777Z,15.41
2022-09-20T12:56:46.708Z,15.01
2022-09-20T12:59:24.616Z,14.53
2022-09-20T13:01:52.512Z,14.11
2022-09-20T13:04:52.994Z,13.81
2022-09-20T13:07:48.004Z,13.51
2022-09-20T13:10:37.475Z,13.31
2022-09-20T13:13:20.093Z,13.12
2022-09-20T13:15:50.451Z,12.97
2022-09-20T13:18:19.601Z,12.89
2022-09-20T13:20:47.372Z,12.88
2022-09-20T13:23:28.556Z,12.84
2022-09-20T13:25:58.156Z,12.82
2022-09-20T13:28:49.235Z,12.78
2022-09-20T13:31:37.403Z,12.80
2022-09-20T13:34:22.622Z,12.85
2022-09-20T13:36:58.220Z,12.89
2022-09-20T13:39:35.309Z,12.88
2022-09-20T13:42:12.518Z,12.89
2022-09-20T13:44:43.442Z,12.94
2022-09-20T13:47:28.878Z,13.00
2022-09-20T13:50:02.972Z,13.08
2022-09-20T13:52:32.261Z,13.18
2022-09-20T13:55:01.126Z,13.29
2022-09-20T13:57:30.235Z,13.55
2022-09-20T13:59:58.738Z,13.83
2022-09-20T14:02:30.935Z,14.22
2022-09-20T14:05:07.235Z,14.52
2022-09-20T14:07:36.833Z,14.59
2022-09-20T14:10:05.098Z,14.88
2022-09-20T14:12:33.702Z,15.17
2022-09-20T14:15:08.565Z,15.40
2022-09-20T14:17:36.789Z,15.68
2022-09-20T14:20:06.276Z,15.77
2022-09-20T14:22:34.131Z,15.85
2022-09-20T14:25:27.734Z,15.85
2022-09-20T14:28:18.740Z,15.44
2022-09-20T14:30:47.726Z,15.11
2022-09-20T14:33:20.737Z,14.89
2022-09-20T14:35:51.475Z,14.61
2022-09-20T14:38:24.257Z,14.56
2022-09-20T14:40:52.909Z,14.32
2022-09-20T14:43:26.546Z,14.44
2022-09-20T14:45:57.341Z,14.77
2022-09-20T14:48:25.098Z,14.98
2022-09-20T14:51:12.390Z,15.12
2022-09-20T14:53:40.184Z,14.85
2022-09-20T14:56:11.465Z,14.93
2022-09-20T14:59:11.879Z,15.05
2022-09-20T15:01:54.103Z,15.57
2022-09-20T15:04:23.479Z,16.03
2022-09-20T15:06:52.275Z,16.31
2022-09-20T15:09:21.885Z,16.49
2022-09-20T15:12:06.906Z,16.57
2022-09-20T15:14:37.912Z,16.49
2022-09-20T15:17:06.893Z,16.69
2022-09-20T15:19:34.736Z,16.90
2022-09-20T15:22:02.523Z,17.18
2022-09-20T15:24:30.293Z,17.34
2022-09-20T15:26:58.051Z,17.46
2022-09-20T15:29:26.130Z,17.58
2022-09-20T15:31:53.961Z,17.60
2022-09-20T15:34:21.979Z,17.54
2022-09-20T15:36:50.731Z,17.16
2022-09-20T15:39:18.538Z,16.50
2022-09-20T15:41:47.009Z,15.98
2022-09-20T15:44:16.891Z,15.50
2022-09-20T15:46:44.647Z,15.07
2022-09-20T15:49:12.629Z,14.77
2022-09-20T15:51:40.435Z,14.53
2022-09-20T15:54:13.072Z,14.27
2022-09-20T15:56:41.417Z,14.05
2022-09-20T15:59:11.708Z,13.89
2022-09-20T16:01:45.591Z,13.83
2022-09-20T16:04:19.446Z,13.74
2022-09-20T16:06:49.434Z,13.68
2022-09-20T16:09:18.627Z,13.55
2022-09-20T16:11:48.219Z,13.42
2022-09-20T16:14:16.348Z,13.29
2022-09-20T16:16:44.132Z,13.13
2022-09-20T16:19:17.984Z,13.00
2022-09-20T16:22:04.321Z,12.87
2022-09-20T16:24:34.695Z,12.72
2022-09-20T16:27:06.247Z,12.60
2022-09-20T16:29:34.493Z,12.49
2022-09-20T16:32:03.719Z,12.38
2022-09-20T16:34:34.434Z,12.30
2022-09-20T16:37:15.817Z,12.22
2022-09-20T16:39:44.713Z,12.17
2022-09-20T16:42:13.225Z,12.13
2022-09-20T16:44:42.945Z,12.07
2022-09-20T16:47:16.301Z,12.03
2022-09-20T16:49:45.589Z,12.02
2022-09-20T16:52:13.493Z,12.00
2022-09-20T16:54:41.466Z,11.97
2022-09-20T16:57:09.506Z,11.97
2022-09-20T16:59:37.256Z,11.92
2022-09-20T17:02:04.985Z,11.88
2022-09-20T17:04:32.824Z,11.86
2022-09-20T17:07:01.813Z,11.84
2022-09-20T17:09:29.647Z,11.78
2022-09-20T17:11:57.487Z,11.73
2022-09-20T17:14:25.806Z,11.69
2022-09-20T17:16:53.626Z,11.63
2022-09-20T17:19:21.417Z,11.55
2022-09-20T17:21:50.856Z,11.46
2022-09-20T17:24:20.795Z,11.36
2022-09-20T17:26:50.658Z,11.28
2022-09-20T17:29:20.208Z,11.18
2022-09-20T17:31:55.054Z,11.10
2022-09-20T17:34:25.364Z,11.04
2022-09-20T17:36:56.692Z,10.98
2022-09-20T17:39:24.531Z,10.93
2022-09-20T17:41:52.602Z,10.88
2022-09-20T17:44:20.747Z,10.84
2022-09-20T17:46:50.685Z,10.79
2022-09-20T17:49:20.755Z,10.74
2022-09-20T17:51:49.736Z,10.71
2022-09-20T17:54:19.119Z,10.70
2022-09-20T17:56:50.289Z,10.68
2022-09-20T17:59:20.017Z,10.66
2022-09-20T18:01:50.508Z,10.62
2022-09-20T18:04:20.977Z,10.59
2022-09-20T18:06:51.149Z,10.58
2022-09-20T18:09:24.839Z,10.57
2022-09-20T18:11:55.050Z,10.55
2022-09-20T18:14:25.792Z,10.53
2022-09-20T18:17:01.257Z,10.47
2022-09-20T18:19:33.774Z,10.43
2022-09-20T18:22:03.241Z,10.39
2022-09-20T18:24:32.270Z,10.36
2022-09-20T18:27:04.490Z,10.31
2022-09-20T18:29:36.684Z,10.24
2022-09-20T18:32:05.441Z,10.18
2022-09-20T18:34:34.127Z,10.11
2022-09-20T18:37:03.835Z,10.04
2022-09-20T18:39:33.496Z,9.99
2022-09-20T18:42:03.255Z,9.94
2022-09-20T18:44:33.748Z,9.91
2022-09-20T18:47:05.743Z,9.87
2022-09-20T18:49:34.344Z,9.77
2022-09-20T18:52:03.024Z,9.70
2022-09-20T18:54:33.251Z,9.62
2022-09-20T18:57:01.297Z,9.56
2022-09-20T18:59:29.387Z,9.54
2022-09-20T19:02:24.362Z,9.52
2022-09-20T19:05:05.709Z,9.50
2022-09-20T19:08:01.060Z,9.49
2022-09-20T19:10:51.388Z,9.50
2022-09-20T19:13:25.294Z,9.48
2022-09-20T19:15:53.086Z,9.47
2022-09-20T19:18:46.503Z,9.46
2022-09-20T19:21:20.819Z,9.44
2022-09-20T19:24:26.675Z,9.42
2022-09-20T19:26:54.622Z,9.41
2022-09-20T19:29:26.815Z,9.39
2022-09-20T19:31:57.683Z,9.37
2022-09-20T19:34:28.390Z,9.35
2022-09-20T19:37:28.092Z,9.33
2022-09-20T19:40:29.905Z,9.29
2022-09-20T19:43:28.622Z,9.25
2022-09-20T19:46:26.993Z,9.21
2022-09-20T19:49:14.357Z,9.18
2022-09-20T19:51:44.284Z,9.14
2022-09-20T19:54:14.889Z,9.12
2022-09-20T19:56:52.497Z,9.10
2022-09-20T19:59:23.205Z,9.08
2022-09-20T20:01:52.566Z,9.07
2022-09-20T20:04:21.317Z,9.09
2022-09-20T20:06:57.901Z,9.09
2022-09-20T20:09:54.921Z,9.09
2022-09-20T20:12:34.171Z,9.05
2022-09-20T20:15:01.888Z,9.04
2022-09-20T20:18:08.419Z,9.02
2022-09-20T20:20:45.880Z,9.00
2022-09-20T20:23:28.617Z,8.97
2022-09-20T20:26:03.130Z,8.92
2022-09-20T20:28:30.959Z,8.89
2022-09-20T20:31:02.040Z,8.85
2022-09-20T20:33:32.872Z,8.81
2022-09-20T20:36:02.200Z,8.77
2022-09-20T20:38:36.900Z,8.73
2022-09-20T20:41:05.177Z,8.69
2022-09-20T20:43:35.822Z,8.67
2022-09-20T20:46:05.436Z,8.64
2022-09-20T20:48:33.276Z,8.61
2022-09-20T20:51:18.465Z,8.59
2022-09-20T20:53:50.101Z,8.56
2022-09-20T20:56:26.422Z,8.53
2022-09-20T20:58:57.719Z,8.50
2022-09-20T21:01:45.916Z,8.48
2022-09-20T21:04:15.687Z,8.46
2022-09-20T21:06:44.066Z,8.45
2022-09-20T21:09:13.442Z,8.44
2022-09-20T21:11:44.893Z,8.46
2022-09-20T21:14:13.095Z,8.48
2022-09-20T21:16:43.224Z,8.50
2022-09-20T21:19:15.140Z,8.53
2022-09-20T21:21:45.189Z,8.55
2022-09-20T21:24:17.741Z,8.57
2022-09-20T21:26:46.843Z,8.56
2022-09-20T21:29:16.117Z,8.55
2022-09-20T21:31:46.598Z,8.53
2022-09-20T21:34:16.254Z,8.52
2022-09-20T21:36:46.803Z,8.51
2022-09-20T21:39:14.616Z,8.50
2022-09-20T21:41:42.486Z,8.50
2022-09-20T21:44:10.752Z,8.49
2022-09-20T21:46:41.270Z,8.49
2022-09-20T21:49:11.983Z,8.48
2022-09-20T21:51:42.618Z,8.48
2022-09-20T21:54:10.908Z,8.50
2022-09-20T21:56:41.116Z,8.50
2022-09-20T21:59:09.509Z,8.49
2022-09-20T22:01:39.230Z,8.50
2022-09-20T22:04:09.696Z,8.51
2022-09-20T22:06:40.306Z,8.52
2022-09-20T22:09:10.841Z,8.54
2022-09-20T22:11:44.826Z,8.54
2022-09-20T22:14:14.437Z,8.53
2022-09-20T22:16:43.816Z,8.52
2022-09-20T22:19:13.716Z,8.50
2022-09-20T22:21:44.046Z,8.48
2022-09-20T22:24:14.264Z,8.45
2022-09-20T22:26:44.798Z,8.43
2022-09-20T22:29:13.309Z,8.41
2022-09-20T22:31:45.494Z,8.39
2022-09-20T22:34:19.268Z,8.37
2022-09-20T22:36:48.517Z,8.36
2022-09-20T22:39:17.176Z,8.35
2022-09-20T22:41:47.762Z,8.36
2022-09-20T22:44:15.581Z,8.36
2022-09-20T22:46:44.286Z,8.36
2022-09-20T22:49:12.033Z,8.37
2022-09-20T22:51:39.849Z,8.38
2022-09-20T22:54:10.654Z,8.40
2022-09-20T22:56:41.457Z,8.42
2022-09-20T22:59:14.330Z,8.43
2022-09-20T23:01:45.177Z,8.43
2022-09-20T23:04:17.830Z,8.42
2022-09-20T23:06:55.166Z,8.41
2022-09-20T23:09:26.246Z,8.40
2022-09-20T23:11:54.221Z,8.38
2022-09-20T23:14:23.402Z,8.37
2022-09-20T23:16:51.413Z,8.35
2022-09-20T23:19:19.259Z,8.34
2022-09-20T23:21:47.042Z,8.33
2022-09-20T23:24:16.545Z,8.32
2022-09-20T23:26:45.470Z,8.30
2022-09-20T23:29:15.999Z,8.28
2022-09-20T23:31:47.232Z,8.26
2022-09-20T23:34:17.578Z,8.25
2022-09-20T23:36:46.663Z,8.24
2022-09-20T23:39:14.915Z,8.23
2022-09-20T23:41:46.964Z,8.23
2022-09-20T23:44:16.472Z,8.24
2022-09-20T23:46:44.209Z,8.24
2022-09-20T23:49:12.030Z,8.26
2022-09-20T23:51:39.826Z,8.27
2022-09-20T23:54:07.642Z,8.30
2022-09-20T23:56:36.394Z,8.32
2022-09-20T23:59:04.165Z,8.33
